sensor_id;sensor_type;location;lat;lon;timestamp;pressure;altitude;pressure_sealevel;temperature;humidity
62978;BME280;49073;42.352;23.808;2023-09-30T00:00:16;95109.41;;;13.05;75.79
62978;BME280;49073;42.352;23.808;2023-09-30T00:03:16;95097.13;;;13.27;75.60
62978;BME280;49073;42.352;23.808;2023-09-30T00:06:17;95110.94;;;13.33;75.31
62978;BME280;49073;42.352;23.808;2023-09-30T00:09:17;95101.28;;;13.24;75.77
62978;BME280;49073;42.352;23.808;2023-09-30T00:12:18;95104.44;;;13.30;75.35
62978;BME280;49073;42.352;23.808;2023-09-30T00:15:19;95097.78;;;13.47;74.74
62978;BME280;49073;42.352;23.808;2023-09-30T00:18:19;95098.69;;;13.55;74.81
62978;BME280;49073;42.352;23.808;2023-09-30T00:21:20;95091.38;;;13.52;75.41
62978;BME280;49073;42.352;23.808;2023-09-30T00:24:21;95095.91;;;13.48;76.26
62978;BME280;49073;42.352;23.808;2023-09-30T00:27:21;95099.72;;;13.47;76.32
62978;BME280;49073;42.352;23.808;2023-09-30T00:30:23;95100.28;;;13.60;76.01
62978;BME280;49073;42.352;23.808;2023-09-30T00:33:24;95091.28;;;13.75;76.14
62978;BME280;49073;42.352;23.808;2023-09-30T00:36:25;95097.63;;;13.90;75.03
62978;BME280;49073;42.352;23.808;2023-09-30T00:39:26;95096.59;;;14.02;73.86
62978;BME280;49073;42.352;23.808;2023-09-30T00:42:30;95096.41;;;14.18;74.75
62978;BME280;49073;42.352;23.808;2023-09-30T00:45:30;95088.44;;;14.25;75.27
62978;BME280;49073;42.352;23.808;2023-09-30T00:48:33;95081.91;;;14.23;75.02
62978;BME280;49073;42.352;23.808;2023-09-30T00:51:34;95088.34;;;14.18;74.88
62978;BME280;49073;42.352;23.808;2023-09-30T00:54:35;95088.06;;;14.27;75.04
62978;BME280;49073;42.352;23.808;2023-09-30T00:57:38;95080.38;;;14.22;75.40
62978;BME280;49073;42.352;23.808;2023-09-30T01:00:39;95087.03;;;14.39;75.55
62978;BME280;49073;42.352;23.808;2023-09-30T01:03:40;95082.47;;;14.43;76.04
62978;BME280;49073;42.352;23.808;2023-09-30T01:06:41;95086.63;;;14.37;75.85
62978;BME280;49073;42.352;23.808;2023-09-30T01:09:42;95085.28;;;14.54;76.08
62978;BME280;49073;42.352;23.808;2023-09-30T01:12:42;95083.00;;;14.56;75.71
62978;BME280;49073;42.352;23.808;2023-09-30T01:15:43;95080.28;;;14.52;75.44
62978;BME280;49073;42.352;23.808;2023-09-30T01:18:44;95080.75;;;14.62;75.35
62978;BME280;49073;42.352;23.808;2023-09-30T01:21:45;95077.69;;;14.63;75.28
62978;BME280;49073;42.352;23.808;2023-09-30T01:24:48;95081.69;;;14.77;75.00
62978;BME280;49073;42.352;23.808;2023-09-30T01:27:49;95075.94;;;14.75;75.75
62978;BME280;49073;42.352;23.808;2023-09-30T01:30:51;95080.50;;;14.74;75.40
62978;BME280;49073;42.352;23.808;2023-09-30T01:33:52;95075.50;;;14.73;75.74
62978;BME280;49073;42.352;23.808;2023-09-30T01:36:54;95070.13;;;14.73;75.20
62978;BME280;49073;42.352;23.808;2023-09-30T01:39:55;95075.16;;;14.74;74.11
62978;BME280;49073;42.352;23.808;2023-09-30T01:42:56;95069.53;;;14.90;74.18
62978;BME280;49073;42.352;23.808;2023-09-30T01:45:57;95068.38;;;14.91;74.70
62978;BME280;49073;42.352;23.808;2023-09-30T01:48:58;95073.31;;;14.82;74.46
62978;BME280;49073;42.352;23.808;2023-09-30T01:51:59;95074.44;;;14.81;74.33
62978;BME280;49073;42.352;23.808;2023-09-30T01:54:59;95069.03;;;14.77;74.90
62978;BME280;49073;42.352;23.808;2023-09-30T01:58:00;95069.50;;;14.87;74.94
62978;BME280;49073;42.352;23.808;2023-09-30T02:01:04;95068.75;;;14.86;74.83
62978;BME280;49073;42.352;23.808;2023-09-30T02:04:05;95068.38;;;14.91;74.97
62978;BME280;49073;42.352;23.808;2023-09-30T02:07:06;95061.03;;;14.84;74.65
62978;BME280;49073;42.352;23.808;2023-09-30T02:10:09;95066.75;;;14.79;74.31
62978;BME280;49073;42.352;23.808;2023-09-30T02:13:10;95066.41;;;14.84;74.25
62978;BME280;49073;42.352;23.808;2023-09-30T02:16:12;95065.25;;;14.82;73.86
62978;BME280;49073;42.352;23.808;2023-09-30T02:19:13;95068.69;;;14.79;73.78
62978;BME280;49073;42.352;23.808;2023-09-30T02:22:15;95065.56;;;14.73;73.89
62978;BME280;49073;42.352;23.808;2023-09-30T02:25:15;95075.06;;;14.67;73.38
62978;BME280;49073;42.352;23.808;2023-09-30T02:28:16;95062.63;;;14.48;74.74
62978;BME280;49073;42.352;23.808;2023-09-30T02:31:17;95060.31;;;14.46;74.30
62978;BME280;49073;42.352;23.808;2023-09-30T02:34:18;95054.91;;;14.43;74.07
62978;BME280;49073;42.352;23.808;2023-09-30T02:37:18;95063.41;;;14.48;73.69
62978;BME280;49073;42.352;23.808;2023-09-30T02:40:19;95052.97;;;14.39;73.87
62978;BME280;49073;42.352;23.808;2023-09-30T02:43:21;95057.13;;;14.33;74.06
62978;BME280;49073;42.352;23.808;2023-09-30T02:46:21;95058.25;;;14.32;73.70
62978;BME280;49073;42.352;23.808;2023-09-30T02:49:22;95053.69;;;14.36;73.05
62978;BME280;49073;42.352;23.808;2023-09-30T02:52:23;95062.47;;;14.33;73.38
62978;BME280;49073;42.352;23.808;2023-09-30T02:55:24;95060.06;;;14.21;73.21
62978;BME280;49073;42.352;23.808;2023-09-30T02:58:24;95047.41;;;14.21;73.59
62978;BME280;49073;42.352;23.808;2023-09-30T03:01:25;95050.47;;;14.20;73.74
62978;BME280;49073;42.352;23.808;2023-09-30T03:04:26;95057.66;;;14.12;74.21
62978;BME280;49073;42.352;23.808;2023-09-30T03:07:29;95048.72;;;14.01;74.03
62978;BME280;49073;42.352;23.808;2023-09-30T03:10:30;95061.34;;;14.00;74.65
62978;BME280;49073;42.352;23.808;2023-09-30T03:13:32;95053.56;;;13.88;74.34
62978;BME280;49073;42.352;23.808;2023-09-30T03:16:33;95061.44;;;13.73;74.75
62978;BME280;49073;42.352;23.808;2023-09-30T03:19:34;95063.38;;;13.76;74.92
62978;BME280;49073;42.352;23.808;2023-09-30T03:22:34;95059.59;;;13.50;75.08
62978;BME280;49073;42.352;23.808;2023-09-30T03:25:36;95059.00;;;13.64;75.42
62978;BME280;49073;42.352;23.808;2023-09-30T03:28:37;95063.28;;;13.69;75.77
62978;BME280;49073;42.352;23.808;2023-09-30T03:31:38;95057.56;;;13.71;75.28
62978;BME280;49073;42.352;23.808;2023-09-30T03:34:38;95061.50;;;13.80;74.79
62978;BME280;49073;42.352;23.808;2023-09-30T03:37:46;95061.50;;;13.80;74.59
62978;BME280;49073;42.352;23.808;2023-09-30T03:40:47;95056.63;;;13.86;74.19
62978;BME280;49073;42.352;23.808;2023-09-30T03:43:48;95064.47;;;13.72;74.43
62978;BME280;49073;42.352;23.808;2023-09-30T03:46:52;95066.63;;;13.62;74.06
62978;BME280;49073;42.352;23.808;2023-09-30T03:49:53;95061.31;;;13.39;74.68
62978;BME280;49073;42.352;23.808;2023-09-30T03:53:01;95058.53;;;13.28;74.22
62978;BME280;49073;42.352;23.808;2023-09-30T03:56:01;95061.31;;;13.39;74.48
62978;BME280;49073;42.352;23.808;2023-09-30T03:59:03;95061.94;;;13.29;74.67
62978;BME280;49073;42.352;23.808;2023-09-30T04:02:03;95059.13;;;13.18;74.79
62978;BME280;49073;42.352;23.808;2023-09-30T04:05:04;95058.28;;;13.14;75.07
62978;BME280;49073;42.352;23.808;2023-09-30T04:08:05;95062.47;;;13.11;74.83
62978;BME280;49073;42.352;23.808;2023-09-30T04:11:06;95059.28;;;13.02;74.82
62978;BME280;49073;42.352;23.808;2023-09-30T04:14:07;95060.00;;;12.99;74.58
62978;BME280;49073;42.352;23.808;2023-09-30T04:17:08;95070.56;;;12.91;74.91
62978;BME280;49073;42.352;23.808;2023-09-30T04:20:09;95064.94;;;12.97;74.91
62978;BME280;49073;42.352;23.808;2023-09-30T04:23:16;95055.53;;;12.83;75.06
62978;BME280;49073;42.352;23.808;2023-09-30T04:26:17;95056.59;;;13.02;74.15
62978;BME280;49073;42.352;23.808;2023-09-30T04:29:17;95065.63;;;12.93;74.67
62978;BME280;49073;42.352;23.808;2023-09-30T04:32:18;95074.44;;;12.94;75.38
62978;BME280;49073;42.352;23.808;2023-09-30T04:35:20;95076.28;;;12.90;75.75
62978;BME280;49073;42.352;23.808;2023-09-30T04:38:22;95074.63;;;12.82;75.79
62978;BME280;49073;42.352;23.808;2023-09-30T04:41:22;95075.03;;;12.84;76.00
62978;BME280;49073;42.352;23.808;2023-09-30T04:44:24;95074.44;;;12.71;76.54
62978;BME280;49073;42.352;23.808;2023-09-30T04:47:28;95081.00;;;12.73;76.62
62978;BME280;49073;42.352;23.808;2023-09-30T04:50:29;95080.59;;;12.71;76.59
62978;BME280;49073;42.352;23.808;2023-09-30T04:53:30;95082.88;;;12.73;76.92
62978;BME280;49073;42.352;23.808;2023-09-30T04:56:36;95086.38;;;12.77;77.15
62978;BME280;49073;42.352;23.808;2023-09-30T04:59:38;95094.59;;;12.88;77.00
62978;BME280;49073;42.352;23.808;2023-09-30T05:02:41;95088.94;;;12.93;77.40
62978;BME280;49073;42.352;23.808;2023-09-30T05:05:43;95094.72;;;12.95;78.07
62978;BME280;49073;42.352;23.808;2023-09-30T05:08:43;95092.13;;;13.02;78.08
62978;BME280;49073;42.352;23.808;2023-09-30T05:11:44;95094.06;;;13.02;78.02
62978;BME280;49073;42.352;23.808;2023-09-30T05:14:44;95096.13;;;13.12;77.99
62978;BME280;49073;42.352;23.808;2023-09-30T05:17:45;95095.28;;;13.31;77.82
62978;BME280;49073;42.352;23.808;2023-09-30T05:20:46;95095.09;;;13.44;77.27
62978;BME280;49073;42.352;23.808;2023-09-30T05:23:47;95096.47;;;13.61;77.05
62978;BME280;49073;42.352;23.808;2023-09-30T05:26:48;95098.19;;;13.76;76.71
62978;BME280;49073;42.352;23.808;2023-09-30T05:29:48;95101.44;;;13.89;75.80
62978;BME280;49073;42.352;23.808;2023-09-30T05:32:50;95103.78;;;13.94;75.35
62978;BME280;49073;42.352;23.808;2023-09-30T05:35:52;95112.19;;;13.93;75.87
62978;BME280;49073;42.352;23.808;2023-09-30T05:38:54;95116.00;;;13.92;73.87
62978;BME280;49073;42.352;23.808;2023-09-30T05:41:55;95123.53;;;14.13;72.90
62978;BME280;49073;42.352;23.808;2023-09-30T05:44:56;95123.34;;;14.33;71.35
62978;BME280;49073;42.352;23.808;2023-09-30T05:47:56;95121.47;;;14.33;70.89
62978;BME280;49073;42.352;23.808;2023-09-30T05:50:59;95116.94;;;14.41;70.40
62978;BME280;49073;42.352;23.808;2023-09-30T05:53:59;95123.28;;;14.63;68.83
62978;BME280;49073;42.352;23.808;2023-09-30T05:57:00;95116.97;;;14.79;68.29
62978;BME280;49073;42.352;23.808;2023-09-30T06:00:01;95117.06;;;14.90;67.86
62978;BME280;49073;42.352;23.808;2023-09-30T06:03:07;95123.34;;;15.08;67.31
62978;BME280;49073;42.352;23.808;2023-09-30T06:06:14;95120.28;;;15.10;67.82
62978;BME280;49073;42.352;23.808;2023-09-30T06:09:16;95113.13;;;15.25;68.22
62978;BME280;49073;42.352;23.808;2023-09-30T06:12:16;95118.22;;;15.41;68.06
62978;BME280;49073;42.352;23.808;2023-09-30T06:15:17;95123.00;;;15.69;67.00
62978;BME280;49073;42.352;23.808;2023-09-30T06:18:22;95121.47;;;15.72;66.04
62978;BME280;49073;42.352;23.808;2023-09-30T06:21:24;95124.63;;;15.85;65.85
62978;BME280;49073;42.352;23.808;2023-09-30T06:24:25;95132.41;;;16.01;66.04
62978;BME280;49073;42.352;23.808;2023-09-30T06:27:25;95131.31;;;16.09;65.29
62978;BME280;49073;42.352;23.808;2023-09-30T06:30:26;95133.28;;;16.23;64.61
62978;BME280;49073;42.352;23.808;2023-09-30T06:33:30;95138.72;;;16.41;64.51
62978;BME280;49073;42.352;23.808;2023-09-30T06:36:31;95136.47;;;16.58;63.70
62978;BME280;49073;42.352;23.808;2023-09-30T06:39:32;95136.47;;;16.69;64.46
62978;BME280;49073;42.352;23.808;2023-09-30T06:42:33;95148.44;;;16.79;64.72
62978;BME280;49073;42.352;23.808;2023-09-30T06:45:34;95143.84;;;16.86;65.78
62978;BME280;49073;42.352;23.808;2023-09-30T06:48:40;95144.59;;;16.91;66.20
62978;BME280;49073;42.352;23.808;2023-09-30T06:51:42;95139.66;;;17.00;65.07
62978;BME280;49073;42.352;23.808;2023-09-30T06:54:42;95137.34;;;17.09;64.90
62978;BME280;49073;42.352;23.808;2023-09-30T06:57:43;95139.28;;;17.23;64.17
62978;BME280;49073;42.352;23.808;2023-09-30T07:00:44;95138.88;;;17.36;64.22
62978;BME280;49073;42.352;23.808;2023-09-30T07:03:45;95141.53;;;17.57;63.93
62978;BME280;49073;42.352;23.808;2023-09-30T07:06:45;95139.59;;;17.72;62.96
62978;BME280;49073;42.352;23.808;2023-09-30T07:09:46;95137.28;;;17.85;62.11
62978;BME280;49073;42.352;23.808;2023-09-30T07:12:46;95135.31;;;17.97;59.21
62978;BME280;49073;42.352;23.808;2023-09-30T07:15:47;95136.41;;;18.21;56.01
62978;BME280;49073;42.352;23.808;2023-09-30T07:18:48;95130.22;;;18.31;55.77
62978;BME280;49073;42.352;23.808;2023-09-30T07:21:48;95134.41;;;18.43;56.08
62978;BME280;49073;42.352;23.808;2023-09-30T07:24:49;95135.03;;;18.69;54.08
62978;BME280;49073;42.352;23.808;2023-09-30T07:27:49;95145.41;;;18.74;54.83
62978;BME280;49073;42.352;23.808;2023-09-30T07:30:50;95143.81;;;18.84;53.95
62978;BME280;49073;42.352;23.808;2023-09-30T07:33:51;95141.91;;;18.78;54.56
62978;BME280;49073;42.352;23.808;2023-09-30T07:36:52;95145.34;;;18.89;52.89
62978;BME280;49073;42.352;23.808;2023-09-30T07:39:53;95145.19;;;19.14;52.90
62978;BME280;49073;42.352;23.808;2023-09-30T07:42:54;95143.88;;;19.33;52.79
62978;BME280;49073;42.352;23.808;2023-09-30T07:45:55;95138.66;;;19.57;50.19
62978;BME280;49073;42.352;23.808;2023-09-30T07:48:55;95142.78;;;19.69;49.81
62978;BME280;49073;42.352;23.808;2023-09-30T07:51:56;95134.56;;;19.80;47.07
62978;BME280;49073;42.352;23.808;2023-09-30T07:54:56;95136.78;;;19.92;46.11
62978;BME280;49073;42.352;23.808;2023-09-30T07:57:57;95135.97;;;19.99;46.97
62978;BME280;49073;42.352;23.808;2023-09-30T08:00:59;95135.50;;;20.04;46.35
62978;BME280;49073;42.352;23.808;2023-09-30T08:04:01;95137.31;;;20.15;45.57
62978;BME280;49073;42.352;23.808;2023-09-30T08:07:02;95145.59;;;20.35;46.10
62978;BME280;49073;42.352;23.808;2023-09-30T08:10:03;95144.69;;;20.45;45.80
62978;BME280;49073;42.352;23.808;2023-09-30T08:13:12;95137.00;;;20.44;46.43
62978;BME280;49073;42.352;23.808;2023-09-30T08:16:13;95138.53;;;20.45;44.78
62978;BME280;49073;42.352;23.808;2023-09-30T08:19:14;95128.53;;;20.69;44.39
62978;BME280;49073;42.352;23.808;2023-09-30T08:22:15;95142.22;;;20.58;45.17
62978;BME280;49073;42.352;23.808;2023-09-30T08:25:15;95134.69;;;20.73;40.82
62978;BME280;49073;42.352;23.808;2023-09-30T08:28:17;95130.91;;;20.67;43.04
62978;BME280;49073;42.352;23.808;2023-09-30T08:31:18;95137.31;;;20.77;43.68
62978;BME280;49073;42.352;23.808;2023-09-30T08:34:18;95140.16;;;20.97;40.76
62978;BME280;49073;42.352;23.808;2023-09-30T08:37:21;95134.25;;;21.06;40.29
62978;BME280;49073;42.352;23.808;2023-09-30T08:40:22;95142.09;;;21.24;39.60
62978;BME280;49073;42.352;23.808;2023-09-30T08:43:25;95140.09;;;21.28;40.76
62978;BME280;49073;42.352;23.808;2023-09-30T08:46:32;95137.63;;;21.38;38.02
62978;BME280;49073;42.352;23.808;2023-09-30T08:49:37;95132.38;;;21.27;39.51
62978;BME280;49073;42.352;23.808;2023-09-30T08:52:41;95130.38;;;21.55;37.60
62978;BME280;49073;42.352;23.808;2023-09-30T08:55:45;95126.13;;;21.54;36.22
62978;BME280;49073;42.352;23.808;2023-09-30T08:58:46;95123.81;;;21.52;36.03
62978;BME280;49073;42.352;23.808;2023-09-30T09:01:47;95120.97;;;21.59;32.93
62978;BME280;49073;42.352;23.808;2023-09-30T09:04:47;95122.50;;;21.64;35.23
62978;BME280;49073;42.352;23.808;2023-09-30T09:07:49;95127.59;;;21.82;34.37
62978;BME280;49073;42.352;23.808;2023-09-30T09:11:00;95121.75;;;21.84;32.94
62978;BME280;49073;42.352;23.808;2023-09-30T09:14:03;95118.00;;;21.98;32.52
62978;BME280;49073;42.352;23.808;2023-09-30T09:17:07;95117.72;;;22.12;33.56
62978;BME280;49073;42.352;23.808;2023-09-30T09:20:09;95114.81;;;22.23;32.42
62978;BME280;49073;42.352;23.808;2023-09-30T09:23:14;95104.88;;;22.33;33.69
62978;BME280;49073;42.352;23.808;2023-09-30T09:26:26;95104.66;;;22.47;33.42
62978;BME280;49073;42.352;23.808;2023-09-30T09:29:30;95110.78;;;22.68;34.52
62978;BME280;49073;42.352;23.808;2023-09-30T09:32:31;95105.84;;;22.63;32.58
62978;BME280;49073;42.352;23.808;2023-09-30T09:35:33;95107.84;;;22.79;33.42
62978;BME280;49073;42.352;23.808;2023-09-30T09:38:44;95100.78;;;22.81;32.85
62978;BME280;49073;42.352;23.808;2023-09-30T09:41:53;95100.94;;;22.91;33.63
62978;BME280;49073;42.352;23.808;2023-09-30T09:45:04;95086.97;;;22.92;33.35
62978;BME280;49073;42.352;23.808;2023-09-30T09:48:06;95089.44;;;23.03;33.35
62978;BME280;49073;42.352;23.808;2023-09-30T09:51:08;95086.25;;;23.21;33.78
62978;BME280;49073;42.352;23.808;2023-09-30T09:54:24;95081.22;;;23.53;34.45
62978;BME280;49073;42.352;23.808;2023-09-30T09:57:27;95082.94;;;23.47;31.80
62978;BME280;49073;42.352;23.808;2023-09-30T10:00:31;95084.50;;;23.31;32.80
62978;BME280;49073;42.352;23.808;2023-09-30T10:03:32;95077.28;;;23.08;34.26
62978;BME280;49073;42.352;23.808;2023-09-30T10:06:34;95071.94;;;23.04;33.08
62978;BME280;49073;42.352;23.808;2023-09-30T10:09:41;95067.94;;;23.25;33.48
62978;BME280;49073;42.352;23.808;2023-09-30T10:12:46;95058.28;;;23.54;32.78
62978;BME280;49073;42.352;23.808;2023-09-30T10:15:47;95053.88;;;23.60;32.13
62978;BME280;49073;42.352;23.808;2023-09-30T10:19:20;95064.81;;;23.86;32.07
62978;BME280;49073;42.352;23.808;2023-09-30T10:22:23;95058.38;;;23.80;32.84
62978;BME280;49073;42.352;23.808;2023-09-30T10:25:34;95048.91;;;24.14;32.79
62978;BME280;49073;42.352;23.808;2023-09-30T10:28:46;95052.16;;;23.79;32.99
62978;BME280;49073;42.352;23.808;2023-09-30T10:31:53;95046.13;;;23.59;33.22
62978;BME280;49073;42.352;23.808;2023-09-30T10:34:53;95048.09;;;23.58;34.02
62978;BME280;49073;42.352;23.808;2023-09-30T10:41:52;95046.78;;;23.00;34.31
62978;BME280;49073;42.352;23.808;2023-09-30T10:44:52;95041.50;;;22.93;34.30
62978;BME280;49073;42.352;23.808;2023-09-30T10:47:56;95024.06;;;23.23;33.96
62978;BME280;49073;42.352;23.808;2023-09-30T10:50:58;95027.22;;;23.68;34.67
62978;BME280;49073;42.352;23.808;2023-09-30T10:54:01;95016.31;;;23.68;32.74
62978;BME280;49073;42.352;23.808;2023-09-30T10:57:02;95021.06;;;23.93;32.62
62978;BME280;49073;42.352;23.808;2023-09-30T11:00:11;95005.47;;;24.23;31.61
62978;BME280;49073;42.352;23.808;2023-09-30T11:03:12;95000.09;;;24.07;31.73
62978;BME280;49073;42.352;23.808;2023-09-30T11:06:17;95008.94;;;23.81;32.73
62978;BME280;49073;42.352;23.808;2023-09-30T11:09:20;95006.19;;;23.98;32.57
62978;BME280;49073;42.352;23.808;2023-09-30T11:12:22;95004.16;;;24.28;32.83
62978;BME280;49073;42.352;23.808;2023-09-30T11:15:22;95003.38;;;24.53;31.30
62978;BME280;49073;42.352;23.808;2023-09-30T11:18:23;95007.50;;;24.71;31.17
62978;BME280;49073;42.352;23.808;2023-09-30T11:21:24;94997.63;;;24.38;30.67
62978;BME280;49073;42.352;23.808;2023-09-30T11:24:26;95001.00;;;24.55;30.96
62978;BME280;49073;42.352;23.808;2023-09-30T11:27:29;94995.97;;;24.93;30.33
62978;BME280;49073;42.352;23.808;2023-09-30T11:30:31;95000.53;;;24.70;30.96
62978;BME280;49073;42.352;23.808;2023-09-30T11:33:32;94996.50;;;24.10;31.26
62978;BME280;49073;42.352;23.808;2023-09-30T11:36:35;94995.28;;;23.98;31.90
62978;BME280;49073;42.352;23.808;2023-09-30T11:39:36;94991.75;;;23.85;31.81
62978;BME280;49073;42.352;23.808;2023-09-30T11:42:37;94988.59;;;23.73;33.33
62978;BME280;49073;42.352;23.808;2023-09-30T11:45:38;94984.22;;;24.18;32.78
62978;BME280;49073;42.352;23.808;2023-09-30T11:48:55;94984.22;;;24.44;30.70
62978;BME280;49073;42.352;23.808;2023-09-30T11:51:57;94982.56;;;24.60;30.77
62978;BME280;49073;42.352;23.808;2023-09-30T11:55:05;94974.47;;;24.69;30.57
62978;BME280;49073;42.352;23.808;2023-09-30T11:58:06;94975.06;;;24.77;29.04
62978;BME280;49073;42.352;23.808;2023-09-30T12:01:09;94975.91;;;24.87;30.87
62978;BME280;49073;42.352;23.808;2023-09-30T12:04:14;94968.47;;;25.00;30.27
62978;BME280;49073;42.352;23.808;2023-09-30T12:07:17;94963.66;;;24.91;29.38
62978;BME280;49073;42.352;23.808;2023-09-30T12:10:18;94963.72;;;25.13;30.42
62978;BME280;49073;42.352;23.808;2023-09-30T12:13:18;94962.34;;;24.96;29.20
62978;BME280;49073;42.352;23.808;2023-09-30T12:16:19;94950.09;;;24.65;29.30
62978;BME280;49073;42.352;23.808;2023-09-30T12:19:20;94950.38;;;24.93;29.46
62978;BME280;49073;42.352;23.808;2023-09-30T12:22:21;94949.47;;;24.96;27.90
62978;BME280;49073;42.352;23.808;2023-09-30T12:25:22;94943.31;;;25.18;29.35
62978;BME280;49073;42.352;23.808;2023-09-30T12:28:24;94937.41;;;25.20;28.98
62978;BME280;49073;42.352;23.808;2023-09-30T12:31:26;94929.44;;;24.90;28.97
62978;BME280;49073;42.352;23.808;2023-09-30T12:34:27;94941.28;;;24.48;30.18
62978;BME280;49073;42.352;23.808;2023-09-30T12:37:28;94935.97;;;24.32;29.68
62978;BME280;49073;42.352;23.808;2023-09-30T12:40:29;94932.81;;;24.20;30.09
62978;BME280;49073;42.352;23.808;2023-09-30T12:43:29;94926.59;;;24.07;30.97
62978;BME280;49073;42.352;23.808;2023-09-30T12:46:30;94929.06;;;23.88;30.85
62978;BME280;49073;42.352;23.808;2023-09-30T12:49:32;94922.09;;;23.87;30.57
62978;BME280;49073;42.352;23.808;2023-09-30T12:52:32;94911.47;;;24.06;31.35
62978;BME280;49073;42.352;23.808;2023-09-30T12:55:33;94921.06;;;24.23;30.70
62978;BME280;49073;42.352;23.808;2023-09-30T12:58:33;94920.16;;;24.39;30.27
62978;BME280;49073;42.352;23.808;2023-09-30T13:01:34;94916.91;;;24.32;30.96
62978;BME280;49073;42.352;23.808;2023-09-30T13:04:35;94913.53;;;24.15;30.57
62978;BME280;49073;42.352;23.808;2023-09-30T13:07:36;94909.28;;;24.01;31.14
62978;BME280;49073;42.352;23.808;2023-09-30T13:10:37;94914.72;;;24.01;31.37
62978;BME280;49073;42.352;23.808;2023-09-30T13:13:38;94907.88;;;24.22;30.40
62978;BME280;49073;42.352;23.808;2023-09-30T13:16:40;94905.91;;;24.22;29.97
62978;BME280;49073;42.352;23.808;2023-09-30T13:19:40;94898.72;;;24.03;30.71
62978;BME280;49073;42.352;23.808;2023-09-30T13:22:41;94898.56;;;23.80;31.26
62978;BME280;49073;42.352;23.808;2023-09-30T13:25:42;94898.25;;;23.65;31.78
62978;BME280;49073;42.352;23.808;2023-09-30T13:28:43;94898.09;;;23.56;31.96
62978;BME280;49073;42.352;23.808;2023-09-30T13:31:43;94895.94;;;23.51;32.66
62978;BME280;49073;42.352;23.808;2023-09-30T13:34:44;94898.09;;;23.43;33.26
62978;BME280;49073;42.352;23.808;2023-09-30T13:37:45;94897.13;;;23.50;32.21
62978;BME280;49073;42.352;23.808;2023-09-30T13:40:46;94890.09;;;23.65;31.72
62978;BME280;49073;42.352;23.808;2023-09-30T13:43:46;94877.25;;;23.66;31.20
62978;BME280;49073;42.352;23.808;2023-09-30T13:46:47;94889.66;;;23.80;31.33
62978;BME280;49073;42.352;23.808;2023-09-30T13:49:48;94875.94;;;23.96;31.20
62978;BME280;49073;42.352;23.808;2023-09-30T13:52:49;94884.22;;;23.93;31.12
62978;BME280;49073;42.352;23.808;2023-09-30T13:55:49;94881.50;;;23.93;30.95
62978;BME280;49073;42.352;23.808;2023-09-30T13:58:50;94875.63;;;23.94;31.34
62978;BME280;49073;42.352;23.808;2023-09-30T14:01:52;94883.03;;;23.94;31.73
62978;BME280;49073;42.352;23.808;2023-09-30T14:04:53;94880.19;;;23.72;31.54
62978;BME280;49073;42.352;23.808;2023-09-30T14:07:53;94875.06;;;23.74;31.89
62978;BME280;49073;42.352;23.808;2023-09-30T14:10:54;94876.38;;;23.69;31.56
62978;BME280;49073;42.352;23.808;2023-09-30T14:13:56;94885.84;;;23.64;31.79
62978;BME280;49073;42.352;23.808;2023-09-30T14:16:56;94886.56;;;23.52;31.46
62978;BME280;49073;42.352;23.808;2023-09-30T14:19:57;94887.09;;;23.47;31.78
62978;BME280;49073;42.352;23.808;2023-09-30T14:22:58;94888.06;;;23.27;31.62
62978;BME280;49073;42.352;23.808;2023-09-30T14:25:58;94885.94;;;23.18;31.82
62978;BME280;49073;42.352;23.808;2023-09-30T14:29:04;94884.41;;;23.17;31.68
62978;BME280;49073;42.352;23.808;2023-09-30T14:32:05;94888.50;;;23.09;31.70
62978;BME280;49073;42.352;23.808;2023-09-30T14:35:07;94887.09;;;23.04;32.19
62978;BME280;49073;42.352;23.808;2023-09-30T14:38:09;94884.78;;;23.03;31.92
62978;BME280;49073;42.352;23.808;2023-09-30T14:41:12;94896.53;;;23.00;32.33
62978;BME280;49073;42.352;23.808;2023-09-30T14:44:13;94892.03;;;22.93;32.27
62978;BME280;49073;42.352;23.808;2023-09-30T14:47:13;94889.84;;;22.88;33.29
62978;BME280;49073;42.352;23.808;2023-09-30T14:50:15;94889.19;;;22.84;33.39
62978;BME280;49073;42.352;23.808;2023-09-30T14:53:16;94888.63;;;22.76;32.74
62978;BME280;49073;42.352;23.808;2023-09-30T14:56:18;94898.03;;;22.71;33.17
62978;BME280;49073;42.352;23.808;2023-09-30T14:59:19;94896.50;;;22.70;32.50
62978;BME280;49073;42.352;23.808;2023-09-30T15:02:19;94893.97;;;22.63;33.22
62978;BME280;49073;42.352;23.808;2023-09-30T15:05:20;94894.16;;;22.56;32.76
62978;BME280;49073;42.352;23.808;2023-09-30T15:08:21;94900.63;;;22.45;33.20
62978;BME280;49073;42.352;23.808;2023-09-30T15:11:22;94897.22;;;22.41;32.98
62978;BME280;49073;42.352;23.808;2023-09-30T15:14:24;94904.50;;;22.28;33.26
62978;BME280;49073;42.352;23.808;2023-09-30T15:17:24;94902.63;;;22.24;33.81
62978;BME280;49073;42.352;23.808;2023-09-30T15:20:25;94899.00;;;22.15;33.46
62978;BME280;49073;42.352;23.808;2023-09-30T15:23:25;94899.84;;;22.12;33.82
62978;BME280;49073;42.352;23.808;2023-09-30T15:26:26;94902.00;;;22.00;34.05
62978;BME280;49073;42.352;23.808;2023-09-30T15:29:28;94903.69;;;21.94;34.22
62978;BME280;49073;42.352;23.808;2023-09-30T15:32:29;94907.06;;;21.82;34.12
62978;BME280;49073;42.352;23.808;2023-09-30T15:35:29;94911.03;;;21.77;34.30
62978;BME280;49073;42.352;23.808;2023-09-30T15:38:30;94899.66;;;21.65;35.19
62978;BME280;49073;42.352;23.808;2023-09-30T15:41:31;94923.16;;;21.52;34.92
62978;BME280;49073;42.352;23.808;2023-09-30T15:44:31;94911.97;;;21.50;35.04
62978;BME280;49073;42.352;23.808;2023-09-30T15:47:32;94916.06;;;21.38;35.61
62978;BME280;49073;42.352;23.808;2023-09-30T15:50:33;94925.28;;;21.24;35.98
62978;BME280;49073;42.352;23.808;2023-09-30T15:53:33;94925.72;;;21.19;36.05